sensor_id;sensor_type;location;lat;lon;timestamp;P1;durP1;ratioP1;P2;durP2;ratioP2
3745;SDS011;1888;49.890;10.884;2022-07-23T00:00:21;11.57;;;11.37;;
3745;SDS011;1888;49.890;10.884;2022-07-23T00:02:50;11.80;;;11.60;;
3745;SDS011;1888;49.890;10.884;2022-07-23T00:05:17;12.07;;;11.87;;
3745;SDS011;1888;49.890;10.884;2022-07-23T00:07:44;11.83;;;11.63;;
3745;SDS011;1888;49.890;10.884;2022-07-23T00:10:11;11.73;;;11.53;;
3745;SDS011;1888;49.890;10.884;2022-07-23T00:12:38;11.30;;;11.10;;
3745;SDS011;1888;49.890;10.884;2022-07-23T00:15:07;11.73;;;11.53;;
3745;SDS011;1888;49.890;10.884;2022-07-23T00:17:34;11.37;;;11.17;;
3745;SDS011;1888;49.890;10.884;2022-07-23T00:20:02;11.67;;;11.47;;
3745;SDS011;1888;49.890;10.884;2022-07-23T00:22:30;11.60;;;11.40;;
3745;SDS011;1888;49.890;10.884;2022-07-23T00:24:57;11.67;;;11.47;;
3745;SDS011;1888;49.890;10.884;2022-07-23T00:27:24;11.33;;;11.13;;
3745;SDS011;1888;49.890;10.884;2022-07-23T00:29:51;11.70;;;11.50;;
3745;SDS011;1888;49.890;10.884;2022-07-23T00:32:18;11.57;;;11.37;;
3745;SDS011;1888;49.890;10.884;2022-07-23T00:34:45;11.57;;;11.37;;
3745;SDS011;1888;49.890;10.884;2022-07-23T00:37:13;11.50;;;11.30;;
3745;SDS011;1888;49.890;10.884;2022-07-23T00:39:40;11.43;;;11.23;;
3745;SDS011;1888;49.890;10.884;2022-07-23T00:42:07;11.30;;;11.10;;
3745;SDS011;1888;49.890;10.884;2022-07-23T00:44:34;11.67;;;11.47;;
3745;SDS011;1888;49.890;10.884;2022-07-23T00:47:02;11.73;;;11.53;;
3745;SDS011;1888;49.890;10.884;2022-07-23T00:49:30;12.03;;;11.83;;
3745;SDS011;1888;49.890;10.884;2022-07-23T00:52:00;11.93;;;11.73;;
3745;SDS011;1888;49.890;10.884;2022-07-23T00:54:29;11.87;;;11.67;;
3745;SDS011;1888;49.890;10.884;2022-07-23T00:56:56;11.70;;;11.50;;
3745;SDS011;1888;49.890;10.884;2022-07-23T00:59:23;11.77;;;11.57;;
3745;SDS011;1888;49.890;10.884;2022-07-23T01:01:50;11.53;;;11.33;;
3745;SDS011;1888;49.890;10.884;2022-07-23T01:04:17;12.13;;;11.93;;
3745;SDS011;1888;49.890;10.884;2022-07-23T01:06:44;12.03;;;11.83;;
3745;SDS011;1888;49.890;10.884;2022-07-23T01:09:11;12.00;;;11.80;;
3745;SDS011;1888;49.890;10.884;2022-07-23T01:11:40;11.73;;;11.53;;
3745;SDS011;1888;49.890;10.884;2022-07-23T01:14:08;11.73;;;11.53;;
3745;SDS011;1888;49.890;10.884;2022-07-23T01:16:35;11.97;;;11.77;;
3745;SDS011;1888;49.890;10.884;2022-07-23T01:19:02;11.80;;;11.60;;
3745;SDS011;1888;49.890;10.884;2022-07-23T01:21:31;11.80;;;11.60;;
3745;SDS011;1888;49.890;10.884;2022-07-23T01:24:00;12.00;;;11.80;;
3745;SDS011;1888;49.890;10.884;2022-07-23T01:26:27;11.50;;;11.30;;
3745;SDS011;1888;49.890;10.884;2022-07-23T01:28:54;11.70;;;11.50;;
3745;SDS011;1888;49.890;10.884;2022-07-23T04:05:58;10.67;;;10.47;;
3745;SDS011;1888;49.890;10.884;2022-07-23T04:08:25;10.90;;;10.70;;
3745;SDS011;1888;49.890;10.884;2022-07-23T04:10:52;11.10;;;10.90;;
3745;SDS011;1888;49.890;10.884;2022-07-23T04:13:19;11.20;;;11.00;;
3745;SDS011;1888;49.890;10.884;2022-07-23T04:15:46;11.00;;;10.80;;
3745;SDS011;1888;49.890;10.884;2022-07-23T04:18:13;11.30;;;11.10;;
3745;SDS011;1888;49.890;10.884;2022-07-23T04:20:42;11.50;;;11.30;;
3745;SDS011;1888;49.890;10.884;2022-07-23T04:23:10;11.60;;;11.40;;
3745;SDS011;1888;49.890;10.884;2022-07-23T04:25:37;11.23;;;11.03;;
3745;SDS011;1888;49.890;10.884;2022-07-23T04:28:04;11.40;;;11.20;;
3745;SDS011;1888;49.890;10.884;2022-07-23T04:30:31;11.27;;;11.07;;
3745;SDS011;1888;49.890;10.884;2022-07-23T04:32:58;11.20;;;11.00;;
3745;SDS011;1888;49.890;10.884;2022-07-23T04:35:26;11.60;;;11.40;;
3745;SDS011;1888;49.890;10.884;2022-07-23T04:37:53;10.93;;;10.73;;
3745;SDS011;1888;49.890;10.884;2022-07-23T04:40:21;11.23;;;11.03;;
3745;SDS011;1888;49.890;10.884;2022-07-23T04:42:48;11.70;;;11.50;;
3745;SDS011;1888;49.890;10.884;2022-07-23T04:45:16;11.40;;;11.20;;
3745;SDS011;1888;49.890;10.884;2022-07-23T04:47:43;11.40;;;11.20;;
3745;SDS011;1888;49.890;10.884;2022-07-23T04:50:10;11.33;;;11.13;;
3745;SDS011;1888;49.890;10.884;2022-07-23T04:52:37;11.30;;;11.10;;
3745;SDS011;1888;49.890;10.884;2022-07-23T04:55:04;11.53;;;11.33;;
3745;SDS011;1888;49.890;10.884;2022-07-23T04:57:33;11.30;;;11.10;;
3745;SDS011;1888;49.890;10.884;2022-07-23T05:00:00;11.40;;;11.20;;
3745;SDS011;1888;49.890;10.884;2022-07-23T05:02:27;11.43;;;11.23;;
3745;SDS011;1888;49.890;10.884;2022-07-23T05:04:54;11.37;;;11.17;;
3745;SDS011;1888;49.890;10.884;2022-07-23T05:07:21;10.87;;;10.67;;
3745;SDS011;1888;49.890;10.884;2022-07-23T05:09:49;11.67;;;11.47;;
3745;SDS011;1888;49.890;10.884;2022-07-23T05:12:16;11.87;;;11.67;;
3745;SDS011;1888;49.890;10.884;2022-07-23T05:14:44;11.90;;;11.70;;
3745;SDS011;1888;49.890;10.884;2022-07-23T05:17:11;12.00;;;11.80;;
3745;SDS011;1888;49.890;10.884;2022-07-23T05:19:38;11.73;;;11.53;;
3745;SDS011;1888;49.890;10.884;2022-07-23T05:22:05;11.70;;;11.50;;
3745;SDS011;1888;49.890;10.884;2022-07-23T05:24:32;11.77;;;11.57;;
3745;SDS011;1888;49.890;10.884;2022-07-23T05:26:59;12.17;;;11.97;;
3745;SDS011;1888;49.890;10.884;2022-07-23T05:29:26;12.33;;;12.13;;
3745;SDS011;1888;49.890;10.884;2022-07-23T05:31:55;12.60;;;12.30;;
3745;SDS011;1888;49.890;10.884;2022-07-23T05:34:22;12.03;;;11.83;;
3745;SDS011;1888;49.890;10.884;2022-07-23T05:36:49;12.30;;;12.10;;
3745;SDS011;1888;49.890;10.884;2022-07-23T05:39:16;11.80;;;11.60;;
3745;SDS011;1888;49.890;10.884;2022-07-23T05:41:43;11.80;;;11.60;;
3745;SDS011;1888;49.890;10.884;2022-07-23T05:44:11;12.10;;;11.90;;
3745;SDS011;1888;49.890;10.884;2022-07-23T05:46:38;12.17;;;11.97;;
3745;SDS011;1888;49.890;10.884;2022-07-23T05:49:07;11.97;;;11.77;;
3745;SDS011;1888;49.890;10.884;2022-07-23T05:51:34;12.07;;;11.87;;
3745;SDS011;1888;49.890;10.884;2022-07-23T05:54:01;12.60;;;12.30;;
3745;SDS011;1888;49.890;10.884;2022-07-23T05:56:28;12.43;;;12.23;;
3745;SDS011;1888;49.890;10.884;2022-07-23T05:58:59;12.10;;;11.90;;
3745;SDS011;1888;49.890;10.884;2022-07-23T06:01:26;11.87;;;11.67;;
3745;SDS011;1888;49.890;10.884;2022-07-23T06:03:53;11.70;;;11.50;;
3745;SDS011;1888;49.890;10.884;2022-07-23T06:06:22;12.00;;;11.80;;
3745;SDS011;1888;49.890;10.884;2022-07-23T06:08:49;11.90;;;11.70;;
3745;SDS011;1888;49.890;10.884;2022-07-23T06:11:16;11.90;;;11.70;;
3745;SDS011;1888;49.890;10.884;2022-07-23T06:13:43;12.20;;;12.00;;
3745;SDS011;1888;49.890;10.884;2022-07-23T06:16:10;11.90;;;11.70;;
3745;SDS011;1888;49.890;10.884;2022-07-23T06:18:37;11.63;;;11.43;;
3745;SDS011;1888;49.890;10.884;2022-07-23T06:21:04;12.20;;;12.00;;
3745;SDS011;1888;49.890;10.884;2022-07-23T06:23:32;11.80;;;11.60;;
3745;SDS011;1888;49.890;10.884;2022-07-23T06:25:59;11.23;;;11.03;;
3745;SDS011;1888;49.890;10.884;2022-07-23T06:28:27;11.63;;;11.43;;
3745;SDS011;1888;49.890;10.884;2022-07-23T06:30:54;11.23;;;11.03;;
3745;SDS011;1888;49.890;10.884;2022-07-23T06:33:21;11.17;;;10.97;;
3745;SDS011;1888;49.890;10.884;2022-07-23T06:35:48;11.50;;;11.30;;
3745;SDS011;1888;49.890;10.884;2022-07-23T06:38:15;11.97;;;11.77;;
3745;SDS011;1888;49.890;10.884;2022-07-23T06:40:43;11.90;;;11.70;;
3745;SDS011;1888;49.890;10.884;2022-07-23T06:43:10;11.70;;;11.50;;
3745;SDS011;1888;49.890;10.884;2022-07-23T06:45:37;11.47;;;11.27;;
3745;SDS011;1888;49.890;10.884;2022-07-23T06:48:05;11.70;;;11.50;;
3745;SDS011;1888;49.890;10.884;2022-07-23T06:50:32;11.30;;;11.10;;
3745;SDS011;1888;49.890;10.884;2022-07-23T06:52:59;11.40;;;11.20;;
3745;SDS011;1888;49.890;10.884;2022-07-23T06:55:26;11.37;;;11.17;;
3745;SDS011;1888;49.890;10.884;2022-07-23T06:57:55;11.53;;;11.33;;
3745;SDS011;1888;49.890;10.884;2022-07-23T07:00:22;11.27;;;11.07;;
3745;SDS011;1888;49.890;10.884;2022-07-23T07:02:53;11.60;;;11.40;;
3745;SDS011;1888;49.890;10.884;2022-07-23T07:05:20;11.17;;;10.97;;
3745;SDS011;1888;49.890;10.884;2022-07-23T07:07:48;11.30;;;11.10;;
3745;SDS011;1888;49.890;10.884;2022-07-23T07:10:15;11.67;;;11.47;;
3745;SDS011;1888;49.890;10.884;2022-07-23T07:12:42;12.00;;;11.80;;
3745;SDS011;1888;49.890;10.884;2022-07-23T07:15:11;11.90;;;11.70;;
3745;SDS011;1888;49.890;10.884;2022-07-23T07:17:38;11.33;;;11.13;;
3745;SDS011;1888;49.890;10.884;2022-07-23T07:20:05;11.80;;;11.60;;
3745;SDS011;1888;49.890;10.884;2022-07-23T07:22:33;11.57;;;11.37;;
3745;SDS011;1888;49.890;10.884;2022-07-23T07:25:00;11.13;;;10.93;;
3745;SDS011;1888;49.890;10.884;2022-07-23T07:27:27;10.60;;;10.40;;
3745;SDS011;1888;49.890;10.884;2022-07-23T07:29:54;10.93;;;10.73;;
3745;SDS011;1888;49.890;10.884;2022-07-23T07:32:22;11.50;;;11.30;;
3745;SDS011;1888;49.890;10.884;2022-07-23T07:34:50;11.50;;;11.30;;
3745;SDS011;1888;49.890;10.884;2022-07-23T07:37:17;11.50;;;11.30;;
3745;SDS011;1888;49.890;10.884;2022-07-23T07:39:44;10.93;;;10.73;;
3745;SDS011;1888;49.890;10.884;2022-07-23T07:42:11;11.13;;;10.93;;
3745;SDS011;1888;49.890;10.884;2022-07-23T07:44:38;11.13;;;10.93;;
3745;SDS011;1888;49.890;10.884;2022-07-23T07:47:05;11.13;;;10.93;;
3745;SDS011;1888;49.890;10.884;2022-07-23T07:49:34;11.03;;;10.83;;
3745;SDS011;1888;49.890;10.884;2022-07-23T07:52:01;11.00;;;10.80;;
3745;SDS011;1888;49.890;10.884;2022-07-23T07:54:28;11.87;;;11.67;;
3745;SDS011;1888;49.890;10.884;2022-07-23T07:56:55;11.50;;;11.30;;
3745;SDS011;1888;49.890;10.884;2022-07-23T07:59:22;11.23;;;11.03;;
3745;SDS011;1888;49.890;10.884;2022-07-23T08:01:50;11.27;;;11.07;;
3745;SDS011;1888;49.890;10.884;2022-07-23T08:04:17;11.40;;;11.20;;
3745;SDS011;1888;49.890;10.884;2022-07-23T08:06:46;11.00;;;10.80;;
3745;SDS011;1888;49.890;10.884;2022-07-23T08:09:13;11.23;;;11.03;;
3745;SDS011;1888;49.890;10.884;2022-07-23T08:11:40;11.10;;;10.90;;
3745;SDS011;1888;49.890;10.884;2022-07-23T08:14:07;11.03;;;10.83;;
3745;SDS011;1888;49.890;10.884;2022-07-23T08:16:34;11.37;;;11.17;;
3745;SDS011;1888;49.890;10.884;2022-07-23T08:19:01;11.70;;;11.50;;
3745;SDS011;1888;49.890;10.884;2022-07-23T08:21:28;11.70;;;11.50;;
3745;SDS011;1888;49.890;10.884;2022-07-23T08:23:56;11.20;;;11.00;;
3745;SDS011;1888;49.890;10.884;2022-07-23T08:26:24;11.37;;;11.17;;
3745;SDS011;1888;49.890;10.884;2022-07-23T08:28:51;11.40;;;11.20;;
3745;SDS011;1888;49.890;10.884;2022-07-23T08:31:18;11.03;;;10.83;;
3745;SDS011;1888;49.890;10.884;2022-07-23T08:33:45;11.00;;;10.80;;
3745;SDS011;1888;49.890;10.884;2022-07-23T08:36:12;11.30;;;11.10;;
3745;SDS011;1888;49.890;10.884;2022-07-23T08:38:39;11.17;;;10.97;;
3745;SDS011;1888;49.890;10.884;2022-07-23T08:41:07;11.90;;;11.70;;
3745;SDS011;1888;49.890;10.884;2022-07-23T08:43:35;11.60;;;11.40;;
3745;SDS011;1888;49.890;10.884;2022-07-23T08:46:02;11.37;;;11.17;;
3745;SDS011;1888;49.890;10.884;2022-07-23T08:48:30;11.70;;;11.50;;
3745;SDS011;1888;49.890;10.884;2022-07-23T08:50:58;11.60;;;11.40;;
3745;SDS011;1888;49.890;10.884;2022-07-23T08:53:26;11.57;;;11.37;;
3745;SDS011;1888;49.890;10.884;2022-07-23T08:55:54;11.20;;;11.00;;
3745;SDS011;1888;49.890;10.884;2022-07-23T08:58:23;11.10;;;10.90;;
3745;SDS011;1888;49.890;10.884;2022-07-23T09:00:50;11.00;;;10.80;;
3745;SDS011;1888;49.890;10.884;2022-07-23T09:03:18;10.73;;;10.53;;
3745;SDS011;1888;49.890;10.884;2022-07-23T09:05:45;11.30;;;11.10;;
3745;SDS011;1888;49.890;10.884;2022-07-23T09:08:13;11.20;;;11.00;;
3745;SDS011;1888;49.890;10.884;2022-07-23T09:10:48;10.93;;;10.73;;
3745;SDS011;1888;49.890;10.884;2022-07-23T09:13:26;11.40;;;11.20;;
3745;SDS011;1888;49.890;10.884;2022-07-23T09:15:55;10.93;;;10.73;;
3745;SDS011;1888;49.890;10.884;2022-07-23T09:18:29;11.10;;;10.90;;
3745;SDS011;1888;49.890;10.884;2022-07-23T09:21:06;11.25;;;11.05;;
3745;SDS011;1888;49.890;10.884;2022-07-23T09:23:37;11.20;;;11.00;;
3745;SDS011;1888;49.890;10.884;2022-07-23T09:26:16;11.20;;;11.00;;
3745;SDS011;1888;49.890;10.884;2022-07-23T09:28:51;11.20;;;11.00;;
3745;SDS011;1888;49.890;10.884;2022-07-23T09:31:19;11.10;;;10.90;;
3745;SDS011;1888;49.890;10.884;2022-07-23T09:33:46;10.82;;;10.63;;
3745;SDS011;1888;49.890;10.884;2022-07-23T09:36:13;10.95;;;10.75;;
3745;SDS011;1888;49.890;10.884;2022-07-23T09:38:47;11.30;;;11.10;;
3745;SDS011;1888;49.890;10.884;2022-07-23T09:41:14;11.30;;;11.10;;
3745;SDS011;1888;49.890;10.884;2022-07-23T09:43:42;11.53;;;11.33;;
3745;SDS011;1888;49.890;10.884;2022-07-23T09:46:21;11.50;;;11.30;;
3745;SDS011;1888;49.890;10.884;2022-07-23T09:48:49;11.40;;;11.20;;
3745;SDS011;1888;49.890;10.884;2022-07-23T09:51:17;11.37;;;11.17;;
3745;SDS011;1888;49.890;10.884;2022-07-23T09:53:46;11.60;;;11.40;;
3745;SDS011;1888;49.890;10.884;2022-07-23T09:56:14;11.23;;;11.03;;
3745;SDS011;1888;49.890;10.884;2022-07-23T09:58:41;11.80;;;11.60;;
3745;SDS011;1888;49.890;10.884;2022-07-23T10:01:13;11.40;;;11.20;;
3745;SDS011;1888;49.890;10.884;2022-07-23T10:03:42;11.47;;;11.27;;
3745;SDS011;1888;49.890;10.884;2022-07-23T10:06:09;11.40;;;11.20;;
3745;SDS011;1888;49.890;10.884;2022-07-23T10:08:38;11.23;;;11.03;;
3745;SDS011;1888;49.890;10.884;2022-07-23T10:11:07;11.00;;;10.80;;
3745;SDS011;1888;49.890;10.884;2022-07-23T10:13:36;11.20;;;11.00;;
3745;SDS011;1888;49.890;10.884;2022-07-23T10:16:20;10.83;;;10.63;;
3745;SDS011;1888;49.890;10.884;2022-07-23T10:18:49;10.97;;;10.77;;
3745;SDS011;1888;49.890;10.884;2022-07-23T10:21:18;11.30;;;11.10;;
3745;SDS011;1888;49.890;10.884;2022-07-23T10:23:51;11.00;;;10.80;;
3745;SDS011;1888;49.890;10.884;2022-07-23T10:26:24;11.20;;;11.00;;
3745;SDS011;1888;49.890;10.884;2022-07-23T10:29:00;11.10;;;10.90;;
3745;SDS011;1888;49.890;10.884;2022-07-23T10:31:31;11.10;;;10.90;;
3745;SDS011;1888;49.890;10.884;2022-07-23T10:34:12;11.00;;;10.80;;
3745;SDS011;1888;49.890;10.884;2022-07-23T10:36:42;10.93;;;10.73;;
3745;SDS011;1888;49.890;10.884;2022-07-23T10:39:13;10.70;;;10.50;;
3745;SDS011;1888;49.890;10.884;2022-07-23T10:41:41;11.10;;;10.90;;
3745;SDS011;1888;49.890;10.884;2022-07-23T10:44:09;11.20;;;11.00;;
3745;SDS011;1888;49.890;10.884;2022-07-23T10:49:24;11.30;;;11.10;;
3745;SDS011;1888;49.890;10.884;2022-07-23T10:54:37;11.00;;;10.80;;
3745;SDS011;1888;49.890;10.884;2022-07-23T10:57:06;10.23;;;10.13;;
3745;SDS011;1888;49.890;10.884;2022-07-23T11:02:23;10.77;;;10.57;;
3745;SDS011;1888;49.890;10.884;2022-07-23T11:04:52;10.97;;;10.77;;
3745;SDS011;1888;49.890;10.884;2022-07-23T11:07:19;10.70;;;10.50;;
3745;SDS011;1888;49.890;10.884;2022-07-23T11:09:48;10.90;;;10.70;;
3745;SDS011;1888;49.890;10.884;2022-07-23T11:12:34;10.80;;;10.60;;
3745;SDS011;1888;49.890;10.884;2022-07-23T11:15:03;10.77;;;10.57;;
3745;SDS011;1888;49.890;10.884;2022-07-23T11:17:31;10.33;;;10.23;;
3745;SDS011;1888;49.890;10.884;2022-07-23T11:20:18;10.67;;;10.47;;
3745;SDS011;1888;49.890;10.884;2022-07-23T11:22:47;10.47;;;10.30;;
3745;SDS011;1888;49.890;10.884;2022-07-23T11:25:28;10.30;;;10.20;;
3745;SDS011;1888;49.890;10.884;2022-07-23T11:28:07;10.70;;;10.50;;
3745;SDS011;1888;49.890;10.884;2022-07-23T11:30:37;10.70;;;10.50;;
3745;SDS011;1888;49.890;10.884;2022-07-23T11:33:18;10.70;;;10.50;;
3745;SDS011;1888;49.890;10.884;2022-07-23T11:35:47;10.50;;;10.30;;
3745;SDS011;1888;49.890;10.884;2022-07-23T11:38:15;10.60;;;10.40;;
3745;SDS011;1888;49.890;10.884;2022-07-23T11:40:43;10.63;;;10.43;;
3745;SDS011;1888;49.890;10.884;2022-07-23T11:43:10;10.60;;;10.40;;
3745;SDS011;1888;49.890;10.884;2022-07-23T11:45:39;10.80;;;10.60;;
3745;SDS011;1888;49.890;10.884;2022-07-23T11:48:06;10.20;;;10.10;;
3745;SDS011;1888;49.890;10.884;2022-07-23T11:50:34;10.60;;;10.40;;
3745;SDS011;1888;49.890;10.884;2022-07-23T11:53:03;10.30;;;10.20;;
3745;SDS011;1888;49.890;10.884;2022-07-23T11:55:30;10.83;;;10.63;;
3745;SDS011;1888;49.890;10.884;2022-07-23T11:57:57;10.70;;;10.50;;
3745;SDS011;1888;49.890;10.884;2022-07-23T12:00:25;10.33;;;10.23;;
3745;SDS011;1888;49.890;10.884;2022-07-23T12:02:53;10.27;;;10.17;;
3745;SDS011;1888;49.890;10.884;2022-07-23T12:05:24;10.30;;;10.20;;
3745;SDS011;1888;49.890;10.884;2022-07-23T12:07:52;10.40;;;10.30;;
3745;SDS011;1888;49.890;10.884;2022-07-23T12:10:21;10.57;;;10.37;;
3745;SDS011;1888;49.890;10.884;2022-07-23T12:12:49;10.30;;;10.20;;
3745;SDS011;1888;49.890;10.884;2022-07-23T12:15:19;10.67;;;10.47;;
3745;SDS011;1888;49.890;10.884;2022-07-23T12:17:47;10.60;;;10.40;;
3745;SDS011;1888;49.890;10.884;2022-07-23T12:20:15;10.37;;;10.27;;
3745;SDS011;1888;49.890;10.884;2022-07-23T12:22:43;10.17;;;10.07;;
3745;SDS011;1888;49.890;10.884;2022-07-23T12:25:15;10.33;;;10.23;;
3745;SDS011;1888;49.890;10.884;2022-07-23T12:27:43;10.37;;;10.27;;
3745;SDS011;1888;49.890;10.884;2022-07-23T12:30:23;10.90;;;10.70;;
3745;SDS011;1888;49.890;10.884;2022-07-23T12:32:51;10.93;;;10.73;;
3745;SDS011;1888;49.890;10.884;2022-07-23T12:35:19;10.60;;;10.40;;
3745;SDS011;1888;49.890;10.884;2022-07-23T12:37:46;10.50;;;10.30;;
3745;SDS011;1888;49.890;10.884;2022-07-23T12:40:21;10.33;;;10.23;;
3745;SDS011;1888;49.890;10.884;2022-07-23T12:42:50;10.80;;;10.60;;
3745;SDS011;1888;49.890;10.884;2022-07-23T12:45:17;10.83;;;10.63;;
3745;SDS011;1888;49.890;10.884;2022-07-23T12:47:54;11.10;;;10.90;;
3745;SDS011;1888;49.890;10.884;2022-07-23T12:50:47;10.80;;;10.60;;
3745;SDS011;1888;49.890;10.884;2022-07-23T12:53:15;10.70;;;10.50;;
3745;SDS011;1888;49.890;10.884;2022-07-23T12:55:42;10.60;;;10.40;;
3745;SDS011;1888;49.890;10.884;2022-07-23T12:58:12;10.90;;;10.70;;
3745;SDS011;1888;49.890;10.884;2022-07-23T13:00:54;10.53;;;10.37;;
3745;SDS011;1888;49.890;10.884;2022-07-23T13:03:22;10.70;;;10.50;;
3745;SDS011;1888;49.890;10.884;2022-07-23T13:05:49;11.10;;;10.90;;
3745;SDS011;1888;49.890;10.884;2022-07-23T13:08:16;11.30;;;11.10;;
3745;SDS011;1888;49.890;10.884;2022-07-23T13:10:43;11.10;;;10.90;;
3745;SDS011;1888;49.890;10.884;2022-07-23T13:13:14;11.00;;;10.80;;
3745;SDS011;1888;49.890;10.884;2022-07-23T13:15:41;11.10;;;10.90;;
3745;SDS011;1888;49.890;10.884;2022-07-23T13:18:08;10.87;;;10.67;;
3745;SDS011;1888;49.890;10.884;2022-07-23T13:20:35;10.90;;;10.70;;
3745;SDS011;1888;49.890;10.884;2022-07-23T13:23:04;10.67;;;10.47;;
3745;SDS011;1888;49.890;10.884;2022-07-23T13:25:31;10.80;;;10.60;;
3745;SDS011;1888;49.890;10.884;2022-07-23T13:27:58;10.80;;;10.60;;
3745;SDS011;1888;49.890;10.884;2022-07-23T13:30:26;10.73;;;10.53;;
3745;SDS011;1888;49.890;10.884;2022-07-23T13:32:54;10.60;;;10.40;;
3745;SDS011;1888;49.890;10.884;2022-07-23T13:35:21;10.70;;;10.50;;
3745;SDS011;1888;49.890;10.884;2022-07-23T13:37:48;10.50;;;10.33;;
3745;SDS011;1888;49.890;10.884;2022-07-23T13:40:16;10.80;;;10.60;;
3745;SDS011;1888;49.890;10.884;2022-07-23T13:42:45;10.17;;;10.07;;
3745;SDS011;1888;49.890;10.884;2022-07-23T13:45:16;10.40;;;10.30;;
3745;SDS011;1888;49.890;10.884;2022-07-23T13:47:45;10.70;;;10.50;;
3745;SDS011;1888;49.890;10.884;2022-07-23T13:50:12;10.30;;;10.20;;
3745;SDS011;1888;49.890;10.884;2022-07-23T13:52:41;10.40;;;10.30;;
3745;SDS011;1888;49.890;10.884;2022-07-23T13:55:09;10.40;;;10.30;;
3745;SDS011;1888;49.890;10.884;2022-07-23T13:57:37;10.50;;;10.30;;
3745;SDS011;1888;49.890;10.884;2022-07-23T14:00:05;10.43;;;10.30;;
3745;SDS011;1888;49.890;10.884;2022-07-23T14:02:33;11.00;;;10.80;;
3745;SDS011;1888;49.890;10.884;2022-07-23T14:05:03;10.93;;;10.73;;
3745;SDS011;1888;49.890;10.884;2022-07-23T14:07:30;10.80;;;10.60;;
3745;SDS011;1888;49.890;10.884;2022-07-23T14:09:57;10.20;;;10.10;;
3745;SDS011;1888;49.890;10.884;2022-07-23T14:12:24;10.80;;;10.60;;
3745;SDS011;1888;49.890;10.884;2022-07-23T14:14:51;10.43;;;10.33;;
3745;SDS011;1888;49.890;10.884;2022-07-23T14:17:18;10.93;;;10.73;;
3745;SDS011;1888;49.890;10.884;2022-07-23T14:19:45;11.00;;;10.80;;
3745;SDS011;1888;49.890;10.884;2022-07-23T14:22:14;10.80;;;10.60;;
3745;SDS011;1888;49.890;10.884;2022-07-23T14:24:41;10.93;;;10.73;;
3745;SDS011;1888;49.890;10.884;2022-07-23T14:27:08;10.90;;;10.70;;
3745;SDS011;1888;49.890;10.884;2022-07-23T14:29:35;11.00;;;10.80;;
3745;SDS011;1888;49.890;10.884;2022-07-23T14:32:02;11.10;;;10.90;;
3745;SDS011;1888;49.890;10.884;2022-07-23T14:34:29;11.10;;;10.90;;
3745;SDS011;1888;49.890;10.884;2022-07-23T14:36:57;11.20;;;11.00;;
3745;SDS011;1888;49.890;10.884;2022-07-23T14:39:25;11.10;;;10.90;;
3745;SDS011;1888;49.890;10.884;2022-07-23T14:41:53;10.80;;;10.60;;
3745;SDS011;1888;49.890;10.884;2022-07-23T14:44:20;10.87;;;10.67;;
3745;SDS011;1888;49.890;10.884;2022-07-23T14:46:47;10.47;;;10.30;;
3745;SDS011;1888;49.890;10.884;2022-07-23T14:49:14;10.80;;;10.60;;
3745;SDS011;1888;49.890;10.884;2022-07-23T14:51:41;10.73;;;10.53;;
3745;SDS011;1888;49.890;10.884;2022-07-23T14:54:09;10.43;;;10.33;;
3745;SDS011;1888;49.890;10.884;2022-07-23T14:56:37;10.90;;;10.70;;
3745;SDS011;1888;49.890;10.884;2022-07-23T14:59:05;10.57;;;10.37;;
3745;SDS011;1888;49.890;10.884;2022-07-23T15:01:32;10.83;;;10.63;;
3745;SDS011;1888;49.890;10.884;2022-07-23T15:03:59;10.73;;;10.53;;
3745;SDS011;1888;49.890;10.884;2022-07-23T15:06:26;10.40;;;10.30;;
3745;SDS011;1888;49.890;10.884;2022-07-23T15:08:53;11.00;;;10.80;;
3745;SDS011;1888;49.890;10.884;2022-07-23T15:11:20;10.70;;;10.50;;
3745;SDS011;1888;49.890;10.884;2022-07-23T15:13:49;10.83;;;10.63;;
3745;SDS011;1888;49.890;10.884;2022-07-23T15:16:16;10.67;;;10.47;;
3745;SDS011;1888;49.890;10.884;2022-07-23T15:18:43;10.70;;;10.50;;
3745;SDS011;1888;49.890;10.884;2022-07-23T15:21:11;10.90;;;10.70;;
3745;SDS011;1888;49.890;10.884;2022-07-23T15:23:38;10.87;;;10.67;;
3745;SDS011;1888;49.890;10.884;2022-07-23T15:26:05;10.80;;;10.60;;
3745;SDS011;1888;49.890;10.884;2022-07-23T15:28:33;10.90;;;10.70;;
3745;SDS011;1888;49.890;10.884;2022-07-23T15:31:01;10.67;;;10.50;;
3745;SDS011;1888;49.890;10.884;2022-07-23T15:33:30;11.03;;;10.83;;
3745;SDS011;1888;49.890;10.884;2022-07-23T15:35:57;10.13;;;10.03;;
3745;SDS011;1888;49.890;10.884;2022-07-23T15:38:25;10.53;;;10.40;;
3745;SDS011;1888;49.890;10.884;2022-07-23T15:40:52;10.33;;;10.23;;
3745;SDS011;1888;49.890;10.884;2022-07-23T15:43:19;10.30;;;10.20;;
3745;SDS011;1888;49.890;10.884;2022-07-23T15:45:47;10.73;;;10.53;;
3745;SDS011;1888;49.890;10.884;2022-07-23T15:48:15;10.63;;;10.43;;
3745;SDS011;1888;49.890;10.884;2022-07-23T15:50:42;10.70;;;10.50;;
3745;SDS011;1888;49.890;10.884;2022-07-23T15:53:09;10.80;;;10.60;;
3745;SDS011;1888;49.890;10.884;2022-07-23T15:55:36;10.80;;;10.60;;
3745;SDS011;1888;49.890;10.884;2022-07-23T15:58:05;10.87;;;10.67;;
3745;SDS011;1888;49.890;10.884;2022-07-23T16:00:32;11.00;;;10.80;;
3745;SDS011;1888;49.890;10.884;2022-07-23T16:02:59;10.60;;;10.40;;
3745;SDS011;1888;49.890;10.884;2022-07-23T16:05:28;10.67;;;10.47;;
3745;SDS011;1888;49.890;10.884;2022-07-23T16:07:55;10.93;;;10.73;;
3745;SDS011;1888;49.890;10.884;2022-07-23T16:10:22;10.90;;;10.70;;
3745;SDS011;1888;49.890;10.884;2022-07-23T16:12:49;11.20;;;11.00;;
3745;SDS011;1888;49.890;10.884;2022-07-23T16:15:16;10.80;;;10.60;;
3745;SDS011;1888;49.890;10.884;2022-07-23T16:17:43;11.30;;;11.10;;
3745;SDS011;1888;49.890;10.884;2022-07-23T16:20:11;11.00;;;10.80;;
3745;SDS011;1888;49.890;10.884;2022-07-23T16:22:39;10.77;;;10.57;;
3745;SDS011;1888;49.890;10.884;2022-07-23T16:25:07;11.20;;;11.00;;
3745;SDS011;1888;49.890;10.884;2022-07-23T16:27:35;10.90;;;10.70;;
3745;SDS011;1888;49.890;10.884;2022-07-23T16:30:02;10.83;;;10.63;;
3745;SDS011;1888;49.890;10.884;2022-07-23T16:32:29;11.10;;;10.90;;
3745;SDS011;1888;49.890;10.884;2022-07-23T16:34:56;10.73;;;10.53;;
3745;SDS011;1888;49.890;10.884;2022-07-23T16:37:23;10.80;;;10.60;;
3745;SDS011;1888;49.890;10.884;2022-07-23T16:39:52;11.20;;;11.00;;
3745;SDS011;1888;49.890;10.884;2022-07-23T16:42:19;11.10;;;10.90;;
3745;SDS011;1888;49.890;10.884;2022-07-23T16:44:46;11.33;;;11.13;;
3745;SDS011;1888;49.890;10.884;2022-07-23T16:47:13;10.73;;;10.53;;
3745;SDS011;1888;49.890;10.884;2022-07-23T16:49:40;11.00;;;10.80;;
3745;SDS011;1888;49.890;10.884;2022-07-23T16:52:07;10.70;;;10.50;;
3745;SDS011;1888;49.890;10.884;2022-07-23T16:54:34;10.40;;;10.30;;
3745;SDS011;1888;49.890;10.884;2022-07-23T16:57:04;10.83;;;10.63;;
3745;SDS011;1888;49.890;10.884;2022-07-23T16:59:34;10.63;;;10.43;;
3745;SDS011;1888;49.890;10.884;2022-07-23T17:02:02;11.20;;;11.00;;
3745;SDS011;1888;49.890;10.884;2022-07-23T17:04:29;11.30;;;11.10;;
3745;SDS011;1888;49.890;10.884;2022-07-23T17:06:59;10.87;;;10.67;;
3745;SDS011;1888;49.890;10.884;2022-07-23T17:09:29;11.10;;;10.90;;
3745;SDS011;1888;49.890;10.884;2022-07-23T17:11:57;11.03;;;10.83;;
3745;SDS011;1888;49.890;10.884;2022-07-23T17:14:25;10.70;;;10.50;;
3745;SDS011;1888;49.890;10.884;2022-07-23T17:16:52;11.30;;;11.10;;
3745;SDS011;1888;49.890;10.884;2022-07-23T17:19:20;10.40;;;10.30;;
3745;SDS011;1888;49.890;10.884;2022-07-23T17:21:47;11.07;;;10.87;;